sensor_id;sensor_type;location;lat;lon;timestamp;temperature;humidity
21676;DHT22;10999;51.332;9.458;2023-08-07T00:01:57;13.20;99.90
21676;DHT22;10999;51.332;9.458;2023-08-07T00:04:23;13.20;99.90
21676;DHT22;10999;51.332;9.458;2023-08-07T00:06:50;13.30;99.90
21676;DHT22;10999;51.332;9.458;2023-08-07T00:09:17;13.20;99.90
21676;DHT22;10999;51.332;9.458;2023-08-07T00:11:44;13.30;99.90
21676;DHT22;10999;51.332;9.458;2023-08-07T00:14:10;13.30;99.90
21676;DHT22;10999;51.332;9.458;2023-08-07T00:16:37;13.30;99.90
21676;DHT22;10999;51.332;9.458;2023-08-07T00:19:04;13.30;99.90
21676;DHT22;10999;51.332;9.458;2023-08-07T00:21:31;13.20;99.90
21676;DHT22;10999;51.332;9.458;2023-08-07T00:23:58;13.20;99.90
21676;DHT22;10999;51.332;9.458;2023-08-07T00:26:25;13.20;99.90
21676;DHT22;10999;51.332;9.458;2023-08-07T00:28:51;13.20;99.90
21676;DHT22;10999;51.332;9.458;2023-08-07T00:31:18;13.20;99.90
21676;DHT22;10999;51.332;9.458;2023-08-07T00:33:45;13.20;99.90
21676;DHT22;10999;51.332;9.458;2023-08-07T00:36:12;13.20;99.90
21676;DHT22;10999;51.332;9.458;2023-08-07T00:38:39;13.20;99.90
21676;DHT22;10999;51.332;9.458;2023-08-07T00:41:06;13.20;99.90
21676;DHT22;10999;51.332;9.458;2023-08-07T00:43:34;13.20;99.90
21676;DHT22;10999;51.332;9.458;2023-08-07T00:46:01;13.20;99.90
21676;DHT22;10999;51.332;9.458;2023-08-07T00:48:28;13.20;99.90
21676;DHT22;10999;51.332;9.458;2023-08-07T00:50:56;13.20;99.90
21676;DHT22;10999;51.332;9.458;2023-08-07T00:53:23;13.20;99.90
21676;DHT22;10999;51.332;9.458;2023-08-07T00:55:50;13.20;99.90
21676;DHT22;10999;51.332;9.458;2023-08-07T00:58:17;13.20;99.90
21676;DHT22;10999;51.332;9.458;2023-08-07T01:00:44;13.20;99.90
21676;DHT22;10999;51.332;9.458;2023-08-07T01:03:12;13.20;99.90
21676;DHT22;10999;51.332;9.458;2023-08-07T01:05:40;13.20;99.90
21676;DHT22;10999;51.332;9.458;2023-08-07T01:08:07;13.20;99.90
21676;DHT22;10999;51.332;9.458;2023-08-07T01:11:07;13.30;99.90
21676;DHT22;10999;51.332;9.458;2023-08-07T01:13:55;13.20;99.90
21676;DHT22;10999;51.332;9.458;2023-08-07T01:16:48;13.20;99.90
21676;DHT22;10999;51.332;9.458;2023-08-07T01:19:23;13.30;99.90
21676;DHT22;10999;51.332;9.458;2023-08-07T01:22:18;13.20;99.90
21676;DHT22;10999;51.332;9.458;2023-08-07T01:24:46;13.20;99.90
21676;DHT22;10999;51.332;9.458;2023-08-07T01:27:35;13.30;99.90
21676;DHT22;10999;51.332;9.458;2023-08-07T01:32:50;13.30;99.90
21676;DHT22;10999;51.332;9.458;2023-08-07T01:35:23;13.30;99.90
21676;DHT22;10999;51.332;9.458;2023-08-07T01:37:55;13.30;99.90
21676;DHT22;10999;51.332;9.458;2023-08-07T01:40:22;13.30;99.90
21676;DHT22;10999;51.332;9.458;2023-08-07T01:42:49;13.30;99.90
21676;DHT22;10999;51.332;9.458;2023-08-07T01:45:26;13.30;99.90
21676;DHT22;10999;51.332;9.458;2023-08-07T01:47:53;13.30;99.90
21676;DHT22;10999;51.332;9.458;2023-08-07T01:50:22;13.30;99.90
21676;DHT22;10999;51.332;9.458;2023-08-07T01:52:49;13.30;99.90
21676;DHT22;10999;51.332;9.458;2023-08-07T01:55:19;13.30;99.90
21676;DHT22;10999;51.332;9.458;2023-08-07T01:57:46;13.30;99.90
21676;DHT22;10999;51.332;9.458;2023-08-07T02:00:13;13.30;99.90
21676;DHT22;10999;51.332;9.458;2023-08-07T02:02:40;13.30;99.90
21676;DHT22;10999;51.332;9.458;2023-08-07T02:05:07;13.30;99.90
21676;DHT22;10999;51.332;9.458;2023-08-07T02:07:33;13.30;99.90
21676;DHT22;10999;51.332;9.458;2023-08-07T02:10:00;13.30;99.90
21676;DHT22;10999;51.332;9.458;2023-08-07T02:12:27;13.30;99.90
21676;DHT22;10999;51.332;9.458;2023-08-07T02:14:56;13.30;99.90
21676;DHT22;10999;51.332;9.458;2023-08-07T02:17:22;13.30;99.90
21676;DHT22;10999;51.332;9.458;2023-08-07T02:19:49;13.30;99.90
21676;DHT22;10999;51.332;9.458;2023-08-07T02:22:16;13.30;99.90
21676;DHT22;10999;51.332;9.458;2023-08-07T02:24:43;13.20;99.90
21676;DHT22;10999;51.332;9.458;2023-08-07T02:27:10;13.30;99.90
21676;DHT22;10999;51.332;9.458;2023-08-07T02:29:36;13.20;99.90
21676;DHT22;10999;51.332;9.458;2023-08-07T02:32:03;13.20;99.90
21676;DHT22;10999;51.332;9.458;2023-08-07T02:34:31;13.20;99.90
21676;DHT22;10999;51.332;9.458;2023-08-07T02:36:58;13.20;99.90
21676;DHT22;10999;51.332;9.458;2023-08-07T02:39:25;13.20;99.90
21676;DHT22;10999;51.332;9.458;2023-08-07T02:41:52;13.20;99.90
21676;DHT22;10999;51.332;9.458;2023-08-07T02:44:19;13.20;99.90
21676;DHT22;10999;51.332;9.458;2023-08-07T02:46:46;13.20;99.90
21676;DHT22;10999;51.332;9.458;2023-08-07T02:49:13;13.20;99.90
21676;DHT22;10999;51.332;9.458;2023-08-07T02:51:40;13.20;99.90
21676;DHT22;10999;51.332;9.458;2023-08-07T02:54:06;13.30;99.90
21676;DHT22;10999;51.332;9.458;2023-08-07T02:56:33;13.30;99.90
21676;DHT22;10999;51.332;9.458;2023-08-07T02:59:00;13.30;99.90
21676;DHT22;10999;51.332;9.458;2023-08-07T03:01:28;13.30;99.90
21676;DHT22;10999;51.332;9.458;2023-08-07T03:03:55;13.20;99.90
21676;DHT22;10999;51.332;9.458;2023-08-07T03:06:22;13.30;99.90
21676;DHT22;10999;51.332;9.458;2023-08-07T03:08:50;13.20;99.90
21676;DHT22;10999;51.332;9.458;2023-08-07T03:11:16;13.20;99.90
21676;DHT22;10999;51.332;9.458;2023-08-07T03:13:43;13.20;99.90
21676;DHT22;10999;51.332;9.458;2023-08-07T03:16:11;13.20;99.90
21676;DHT22;10999;51.332;9.458;2023-08-07T03:18:38;13.20;99.90
21676;DHT22;10999;51.332;9.458;2023-08-07T03:21:04;13.20;99.90
21676;DHT22;10999;51.332;9.458;2023-08-07T03:23:31;13.20;99.90
21676;DHT22;10999;51.332;9.458;2023-08-07T03:26:06;13.20;99.90
21676;DHT22;10999;51.332;9.458;2023-08-07T03:28:45;13.20;99.90
21676;DHT22;10999;51.332;9.458;2023-08-07T03:31:16;13.20;99.90
21676;DHT22;10999;51.332;9.458;2023-08-07T03:33:43;13.20;99.90
21676;DHT22;10999;51.332;9.458;2023-08-07T03:36:10;13.20;99.90
21676;DHT22;10999;51.332;9.458;2023-08-07T03:38:37;13.20;99.90
21676;DHT22;10999;51.332;9.458;2023-08-07T03:41:04;13.20;99.90
21676;DHT22;10999;51.332;9.458;2023-08-07T03:43:31;13.20;99.90
21676;DHT22;10999;51.332;9.458;2023-08-07T03:45:57;13.20;99.90
21676;DHT22;10999;51.332;9.458;2023-08-07T03:48:29;13.30;99.90
21676;DHT22;10999;51.332;9.458;2023-08-07T03:51:03;13.30;99.90
21676;DHT22;10999;51.332;9.458;2023-08-07T03:53:30;13.30;99.90
21676;DHT22;10999;51.332;9.458;2023-08-07T03:55:57;13.30;99.90
21676;DHT22;10999;51.332;9.458;2023-08-07T03:58:24;13.30;99.90
21676;DHT22;10999;51.332;9.458;2023-08-07T04:00:51;13.30;99.90
21676;DHT22;10999;51.332;9.458;2023-08-07T04:03:20;13.30;99.90
21676;DHT22;10999;51.332;9.458;2023-08-07T04:05:47;13.30;99.90
21676;DHT22;10999;51.332;9.458;2023-08-07T04:08:17;13.30;99.90
21676;DHT22;10999;51.332;9.458;2023-08-07T04:10:44;13.30;99.90
21676;DHT22;10999;51.332;9.458;2023-08-07T04:13:11;13.30;99.90
21676;DHT22;10999;51.332;9.458;2023-08-07T04:15:38;13.30;99.90
21676;DHT22;10999;51.332;9.458;2023-08-07T04:18:04;13.30;99.90
21676;DHT22;10999;51.332;9.458;2023-08-07T04:20:31;13.30;99.90
21676;DHT22;10999;51.332;9.458;2023-08-07T04:22:58;13.30;99.90
21676;DHT22;10999;51.332;9.458;2023-08-07T04:25:25;13.30;99.90
21676;DHT22;10999;51.332;9.458;2023-08-07T04:27:51;13.30;99.90
21676;DHT22;10999;51.332;9.458;2023-08-07T04:30:18;13.30;99.90
21676;DHT22;10999;51.332;9.458;2023-08-07T04:32:45;13.30;99.90
21676;DHT22;10999;51.332;9.458;2023-08-07T04:35:12;13.40;99.90
21676;DHT22;10999;51.332;9.458;2023-08-07T04:37:38;13.40;99.90
21676;DHT22;10999;51.332;9.458;2023-08-07T04:40:07;13.40;99.90
21676;DHT22;10999;51.332;9.458;2023-08-07T04:42:35;13.30;99.90
21676;DHT22;10999;51.332;9.458;2023-08-07T04:45:02;13.40;99.90
21676;DHT22;10999;51.332;9.458;2023-08-07T04:47:28;13.30;99.90
21676;DHT22;10999;51.332;9.458;2023-08-07T04:49:55;13.30;99.90
21676;DHT22;10999;51.332;9.458;2023-08-07T04:52:22;13.40;99.90
21676;DHT22;10999;51.332;9.458;2023-08-07T04:54:52;13.40;99.90
21676;DHT22;10999;51.332;9.458;2023-08-07T04:57:19;13.40;99.90
21676;DHT22;10999;51.332;9.458;2023-08-07T04:59:45;13.40;99.90
21676;DHT22;10999;51.332;9.458;2023-08-07T05:02:12;13.40;99.90
21676;DHT22;10999;51.332;9.458;2023-08-07T05:04:39;13.30;99.90
21676;DHT22;10999;51.332;9.458;2023-08-07T05:07:06;13.40;99.90
21676;DHT22;10999;51.332;9.458;2023-08-07T05:09:33;13.30;99.90
21676;DHT22;10999;51.332;9.458;2023-08-07T05:11:59;13.40;99.90
21676;DHT22;10999;51.332;9.458;2023-08-07T05:14:26;13.40;99.90
21676;DHT22;10999;51.332;9.458;2023-08-07T05:16:53;13.40;99.90
21676;DHT22;10999;51.332;9.458;2023-08-07T05:19:20;13.40;99.90
21676;DHT22;10999;51.332;9.458;2023-08-07T05:21:47;13.40;99.90
21676;DHT22;10999;51.332;9.458;2023-08-07T05:24:17;13.40;99.90
21676;DHT22;10999;51.332;9.458;2023-08-07T05:26:44;13.40;99.90
21676;DHT22;10999;51.332;9.458;2023-08-07T05:29:11;13.50;99.90
21676;DHT22;10999;51.332;9.458;2023-08-07T05:31:38;13.50;99.90
21676;DHT22;10999;51.332;9.458;2023-08-07T05:34:04;13.50;99.90
21676;DHT22;10999;51.332;9.458;2023-08-07T05:36:31;13.50;99.90
21676;DHT22;10999;51.332;9.458;2023-08-07T05:38:59;13.50;99.90
21676;DHT22;10999;51.332;9.458;2023-08-07T05:41:26;13.50;99.90
21676;DHT22;10999;51.332;9.458;2023-08-07T05:43:52;13.60;99.90
21676;DHT22;10999;51.332;9.458;2023-08-07T05:46:19;13.60;99.90
21676;DHT22;10999;51.332;9.458;2023-08-07T05:48:46;13.60;99.90
21676;DHT22;10999;51.332;9.458;2023-08-07T05:51:13;13.60;99.90
21676;DHT22;10999;51.332;9.458;2023-08-07T05:53:39;13.60;99.90
21676;DHT22;10999;51.332;9.458;2023-08-07T05:56:06;13.60;99.90
21676;DHT22;10999;51.332;9.458;2023-08-07T05:58:33;13.60;99.90
21676;DHT22;10999;51.332;9.458;2023-08-07T06:01:00;13.60;99.90
21676;DHT22;10999;51.332;9.458;2023-08-07T06:03:26;13.70;99.90
21676;DHT22;10999;51.332;9.458;2023-08-07T06:05:54;13.70;99.90
21676;DHT22;10999;51.332;9.458;2023-08-07T06:08:23;13.70;99.90
21676;DHT22;10999;51.332;9.458;2023-08-07T06:10:50;13.70;99.90
21676;DHT22;10999;51.332;9.458;2023-08-07T06:13:16;13.70;99.90
21676;DHT22;10999;51.332;9.458;2023-08-07T06:16:00;13.70;99.90
21676;DHT22;10999;51.332;9.458;2023-08-07T06:18:26;13.70;99.90
21676;DHT22;10999;51.332;9.458;2023-08-07T06:20:53;13.70;99.90
21676;DHT22;10999;51.332;9.458;2023-08-07T06:23:20;13.70;99.90
21676;DHT22;10999;51.332;9.458;2023-08-07T06:25:47;13.70;99.90
21676;DHT22;10999;51.332;9.458;2023-08-07T06:28:13;13.70;99.90
21676;DHT22;10999;51.332;9.458;2023-08-07T06:30:40;13.70;99.90
21676;DHT22;10999;51.332;9.458;2023-08-07T06:33:07;13.70;99.90
21676;DHT22;10999;51.332;9.458;2023-08-07T06:35:38;13.70;99.90
21676;DHT22;10999;51.332;9.458;2023-08-07T06:38:05;13.70;99.90
21676;DHT22;10999;51.332;9.458;2023-08-07T06:40:35;13.80;99.90
21676;DHT22;10999;51.332;9.458;2023-08-07T06:43:02;13.80;99.90
21676;DHT22;10999;51.332;9.458;2023-08-07T06:45:28;13.70;99.90
21676;DHT22;10999;51.332;9.458;2023-08-07T06:47:55;13.80;99.90
21676;DHT22;10999;51.332;9.458;2023-08-07T06:50:23;13.80;99.90
21676;DHT22;10999;51.332;9.458;2023-08-07T06:52:50;13.80;99.90
21676;DHT22;10999;51.332;9.458;2023-08-07T06:55:17;13.80;99.90
21676;DHT22;10999;51.332;9.458;2023-08-07T06:57:45;13.90;99.90
21676;DHT22;10999;51.332;9.458;2023-08-07T07:00:12;13.90;99.90
21676;DHT22;10999;51.332;9.458;2023-08-07T07:02:39;13.90;99.90
21676;DHT22;10999;51.332;9.458;2023-08-07T07:05:06;13.90;99.90
21676;DHT22;10999;51.332;9.458;2023-08-07T07:07:33;13.90;99.90
21676;DHT22;10999;51.332;9.458;2023-08-07T07:09:59;13.90;99.90
21676;DHT22;10999;51.332;9.458;2023-08-07T07:12:27;13.90;99.90
21676;DHT22;10999;51.332;9.458;2023-08-07T07:14:55;13.90;99.90
21676;DHT22;10999;51.332;9.458;2023-08-07T07:17:21;13.90;99.90
21676;DHT22;10999;51.332;9.458;2023-08-07T07:19:48;13.90;99.90
21676;DHT22;10999;51.332;9.458;2023-08-07T07:22:15;13.90;99.90
21676;DHT22;10999;51.332;9.458;2023-08-07T07:24:42;13.90;99.90
21676;DHT22;10999;51.332;9.458;2023-08-07T07:27:09;13.90;99.90
21676;DHT22;10999;51.332;9.458;2023-08-07T07:29:35;13.90;99.90
21676;DHT22;10999;51.332;9.458;2023-08-07T07:32:02;13.90;99.90
21676;DHT22;10999;51.332;9.458;2023-08-07T07:34:29;14.00;99.90
21676;DHT22;10999;51.332;9.458;2023-08-07T07:36:56;14.10;99.90
21676;DHT22;10999;51.332;9.458;2023-08-07T07:39:22;14.20;99.90
21676;DHT22;10999;51.332;9.458;2023-08-07T07:41:49;14.30;99.90
21676;DHT22;10999;51.332;9.458;2023-08-07T07:44:16;14.30;99.90
21676;DHT22;10999;51.332;9.458;2023-08-07T07:46:43;14.40;99.90
21676;DHT22;10999;51.332;9.458;2023-08-07T07:49:10;14.40;99.90
21676;DHT22;10999;51.332;9.458;2023-08-07T07:51:36;14.50;97.60
21676;DHT22;10999;51.332;9.458;2023-08-07T07:54:04;14.50;97.30
21676;DHT22;10999;51.332;9.458;2023-08-07T07:56:33;14.60;98.20
21676;DHT22;10999;51.332;9.458;2023-08-07T07:59:00;14.60;97.00
21676;DHT22;10999;51.332;9.458;2023-08-07T08:01:27;14.60;98.40
21676;DHT22;10999;51.332;9.458;2023-08-07T08:03:54;14.60;97.00
21676;DHT22;10999;51.332;9.458;2023-08-07T08:06:21;14.70;98.50
21676;DHT22;10999;51.332;9.458;2023-08-07T08:08:48;14.80;96.90
21676;DHT22;10999;51.332;9.458;2023-08-07T08:11:15;14.80;96.70
21676;DHT22;10999;51.332;9.458;2023-08-07T08:13:42;14.80;96.20
21676;DHT22;10999;51.332;9.458;2023-08-07T08:16:08;14.80;96.10
21676;DHT22;10999;51.332;9.458;2023-08-07T08:18:35;14.70;97.10
21676;DHT22;10999;51.332;9.458;2023-08-07T08:21:02;14.80;98.90
21676;DHT22;10999;51.332;9.458;2023-08-07T08:23:29;14.70;95.90
21676;DHT22;10999;51.332;9.458;2023-08-07T08:25:56;14.70;96.10
21676;DHT22;10999;51.332;9.458;2023-08-07T08:28:22;14.70;95.50
21676;DHT22;10999;51.332;9.458;2023-08-07T08:30:51;14.70;96.60
21676;DHT22;10999;51.332;9.458;2023-08-07T08:33:18;14.80;97.80
21676;DHT22;10999;51.332;9.458;2023-08-07T08:35:44;14.80;95.90
21676;DHT22;10999;51.332;9.458;2023-08-07T08:38:11;15.00;96.50
21676;DHT22;10999;51.332;9.458;2023-08-07T08:40:38;15.20;98.40
21676;DHT22;10999;51.332;9.458;2023-08-07T08:43:06;15.60;99.90
21676;DHT22;10999;51.332;9.458;2023-08-07T08:45:33;15.70;91.60
21676;DHT22;10999;51.332;9.458;2023-08-07T08:48:04;16.00;94.10
21676;DHT22;10999;51.332;9.458;2023-08-07T08:50:32;16.00;87.00
21676;DHT22;10999;51.332;9.458;2023-08-07T08:53:00;16.00;88.10
21676;DHT22;10999;51.332;9.458;2023-08-07T08:55:29;15.80;86.90
21676;DHT22;10999;51.332;9.458;2023-08-07T08:57:57;15.70;87.50
21676;DHT22;10999;51.332;9.458;2023-08-07T09:00:27;15.70;88.20
21676;DHT22;10999;51.332;9.458;2023-08-07T09:02:56;15.80;89.10
21676;DHT22;10999;51.332;9.458;2023-08-07T09:05:23;15.90;85.30
21676;DHT22;10999;51.332;9.458;2023-08-07T09:07:51;16.00;87.20
21676;DHT22;10999;51.332;9.458;2023-08-07T09:10:18;16.10;86.30
21676;DHT22;10999;51.332;9.458;2023-08-07T09:13:02;16.20;85.90
21676;DHT22;10999;51.332;9.458;2023-08-07T09:15:32;16.10;84.10
21676;DHT22;10999;51.332;9.458;2023-08-07T09:18:00;15.90;85.20
21676;DHT22;10999;51.332;9.458;2023-08-07T09:20:27;15.90;86.50
21676;DHT22;10999;51.332;9.458;2023-08-07T09:22:55;16.00;85.70
21676;DHT22;10999;51.332;9.458;2023-08-07T09:25:32;16.10;86.30
21676;DHT22;10999;51.332;9.458;2023-08-07T09:28:04;16.20;86.90
21676;DHT22;10999;51.332;9.458;2023-08-07T09:30:35;16.40;83.70
21676;DHT22;10999;51.332;9.458;2023-08-07T09:33:02;16.60;84.20
21676;DHT22;10999;51.332;9.458;2023-08-07T09:35:30;16.70;84.10
21676;DHT22;10999;51.332;9.458;2023-08-07T09:38:01;16.70;81.70
21676;DHT22;10999;51.332;9.458;2023-08-07T09:40:29;16.70;81.80
21676;DHT22;10999;51.332;9.458;2023-08-07T09:42:56;16.70;79.80
21676;DHT22;10999;51.332;9.458;2023-08-07T09:45:27;16.50;79.60
21676;DHT22;10999;51.332;9.458;2023-08-07T09:48:04;16.40;80.30
21676;DHT22;10999;51.332;9.458;2023-08-07T09:50:33;16.40;83.40
21676;DHT22;10999;51.332;9.458;2023-08-07T09:53:00;16.60;83.10
21676;DHT22;10999;51.332;9.458;2023-08-07T09:55:27;16.70;81.90
21676;DHT22;10999;51.332;9.458;2023-08-07T09:57:54;16.70;78.60
21676;DHT22;10999;51.332;9.458;2023-08-07T10:00:21;16.80;81.90
21676;DHT22;10999;51.332;9.458;2023-08-07T10:02:49;16.90;81.80
21676;DHT22;10999;51.332;9.458;2023-08-07T10:05:17;17.00;81.80
21676;DHT22;10999;51.332;9.458;2023-08-07T10:07:44;16.90;80.40
21676;DHT22;10999;51.332;9.458;2023-08-07T10:10:14;16.70;80.00
21676;DHT22;10999;51.332;9.458;2023-08-07T10:12:41;16.60;80.10
21676;DHT22;10999;51.332;9.458;2023-08-07T10:15:10;16.70;82.60
21676;DHT22;10999;51.332;9.458;2023-08-07T10:17:37;16.70;82.10
21676;DHT22;10999;51.332;9.458;2023-08-07T10:20:04;16.60;81.80
21676;DHT22;10999;51.332;9.458;2023-08-07T10:22:33;16.60;80.80
21676;DHT22;10999;51.332;9.458;2023-08-07T10:25:02;16.60;80.00
21676;DHT22;10999;51.332;9.458;2023-08-07T10:27:34;16.70;79.70
21676;DHT22;10999;51.332;9.458;2023-08-07T10:30:09;16.80;81.00
21676;DHT22;10999;51.332;9.458;2023-08-07T10:32:39;16.80;78.00
21676;DHT22;10999;51.332;9.458;2023-08-07T10:35:06;16.80;79.00
21676;DHT22;10999;51.332;9.458;2023-08-07T10:37:44;17.00;77.90
21676;DHT22;10999;51.332;9.458;2023-08-07T10:40:12;17.10;79.60
21676;DHT22;10999;51.332;9.458;2023-08-07T10:45:22;17.20;82.40
21676;DHT22;10999;51.332;9.458;2023-08-07T10:50:32;16.70;86.20
21676;DHT22;10999;51.332;9.458;2023-08-07T10:53:00;16.60;90.10
21676;DHT22;10999;51.332;9.458;2023-08-07T10:55:34;16.40;90.40
21676;DHT22;10999;51.332;9.458;2023-08-07T10:58:21;16.30;90.20
21676;DHT22;10999;51.332;9.458;2023-08-07T11:00:51;16.30;89.70
21676;DHT22;10999;51.332;9.458;2023-08-07T11:03:27;16.20;89.00
21676;DHT22;10999;51.332;9.458;2023-08-07T11:05:57;16.10;86.50
21676;DHT22;10999;51.332;9.458;2023-08-07T11:08:24;16.10;86.40
21676;DHT22;10999;51.332;9.458;2023-08-07T11:10:53;16.00;87.10
21676;DHT22;10999;51.332;9.458;2023-08-07T11:13:21;16.20;89.60
21676;DHT22;10999;51.332;9.458;2023-08-07T11:15:49;16.30;90.30
21676;DHT22;10999;51.332;9.458;2023-08-07T11:18:16;16.40;90.60
21676;DHT22;10999;51.332;9.458;2023-08-07T11:20:43;16.30;89.50
21676;DHT22;10999;51.332;9.458;2023-08-07T11:23:11;16.30;92.30
21676;DHT22;10999;51.332;9.458;2023-08-07T11:25:38;16.30;91.50
21676;DHT22;10999;51.332;9.458;2023-08-07T11:28:04;16.30;91.00
21676;DHT22;10999;51.332;9.458;2023-08-07T11:30:31;16.40;93.10
21676;DHT22;10999;51.332;9.458;2023-08-07T11:32:58;16.30;90.70
21676;DHT22;10999;51.332;9.458;2023-08-07T11:35:25;16.30;89.70
21676;DHT22;10999;51.332;9.458;2023-08-07T11:37:52;16.30;89.40
21676;DHT22;10999;51.332;9.458;2023-08-07T11:40:20;16.40;90.50
21676;DHT22;10999;51.332;9.458;2023-08-07T11:42:47;16.30;88.40
21676;DHT22;10999;51.332;9.458;2023-08-07T11:45:14;16.30;87.40
21676;DHT22;10999;51.332;9.458;2023-08-07T11:47:41;16.30;88.80
21676;DHT22;10999;51.332;9.458;2023-08-07T11:50:09;16.30;86.60
21676;DHT22;10999;51.332;9.458;2023-08-07T11:52:36;16.30;85.60
21676;DHT22;10999;51.332;9.458;2023-08-07T11:55:03;16.30;85.50
21676;DHT22;10999;51.332;9.458;2023-08-07T11:57:30;16.30;85.50
21676;DHT22;10999;51.332;9.458;2023-08-07T11:59:59;16.20;83.50
21676;DHT22;10999;51.332;9.458;2023-08-07T12:02:26;16.20;84.10
21676;DHT22;10999;51.332;9.458;2023-08-07T12:04:57;16.40;85.00
21676;DHT22;10999;51.332;9.458;2023-08-07T12:07:25;16.50;85.60
21676;DHT22;10999;51.332;9.458;2023-08-07T12:09:55;16.60;85.00
21676;DHT22;10999;51.332;9.458;2023-08-07T12:12:22;16.60;82.20
21676;DHT22;10999;51.332;9.458;2023-08-07T12:14:54;16.50;78.60
21676;DHT22;10999;51.332;9.458;2023-08-07T12:17:21;16.40;79.70
21676;DHT22;10999;51.332;9.458;2023-08-07T12:19:50;16.30;81.10
21676;DHT22;10999;51.332;9.458;2023-08-07T12:22:19;16.20;80.70
21676;DHT22;10999;51.332;9.458;2023-08-07T12:24:47;16.10;78.50
21676;DHT22;10999;51.332;9.458;2023-08-07T12:27:14;16.00;74.40
21676;DHT22;10999;51.332;9.458;2023-08-07T12:29:40;15.90;71.80
21676;DHT22;10999;51.332;9.458;2023-08-07T12:32:07;15.70;73.00
21676;DHT22;10999;51.332;9.458;2023-08-07T12:34:36;15.90;72.60
21676;DHT22;10999;51.332;9.458;2023-08-07T12:37:24;16.00;74.40
21676;DHT22;10999;51.332;9.458;2023-08-07T12:39:51;16.20;75.50
21676;DHT22;10999;51.332;9.458;2023-08-07T12:42:21;16.50;79.10
21676;DHT22;10999;51.332;9.458;2023-08-07T12:44:51;16.80;75.40
21676;DHT22;10999;51.332;9.458;2023-08-07T12:47:18;17.10;73.50
21676;DHT22;10999;51.332;9.458;2023-08-07T12:49:45;17.30;72.30
21676;DHT22;10999;51.332;9.458;2023-08-07T12:52:14;17.50;67.60
21676;DHT22;10999;51.332;9.458;2023-08-07T12:54:40;17.80;68.00
21676;DHT22;10999;51.332;9.458;2023-08-07T12:57:07;18.10;62.70
21676;DHT22;10999;51.332;9.458;2023-08-07T12:59:34;18.30;62.70
21676;DHT22;10999;51.332;9.458;2023-08-07T13:02:01;18.20;60.10
21676;DHT22;10999;51.332;9.458;2023-08-07T13:04:27;18.20;60.80
21676;DHT22;10999;51.332;9.458;2023-08-07T13:06:54;18.00;63.20
21676;DHT22;10999;51.332;9.458;2023-08-07T13:09:22;17.60;64.60
21676;DHT22;10999;51.332;9.458;2023-08-07T13:11:48;17.00;68.20
21676;DHT22;10999;51.332;9.458;2023-08-07T13:14:15;16.60;74.00
21676;DHT22;10999;51.332;9.458;2023-08-07T13:16:42;16.20;75.30
21676;DHT22;10999;51.332;9.458;2023-08-07T13:19:09;16.00;76.70
21676;DHT22;10999;51.332;9.458;2023-08-07T13:21:35;15.90;79.50
21676;DHT22;10999;51.332;9.458;2023-08-07T13:24:02;15.90;78.90
21676;DHT22;10999;51.332;9.458;2023-08-07T13:26:29;16.00;77.70
21676;DHT22;10999;51.332;9.458;2023-08-07T13:28:56;16.20;76.90
21676;DHT22;10999;51.332;9.458;2023-08-07T13:31:23;16.70;72.50
21676;DHT22;10999;51.332;9.458;2023-08-07T13:33:49;17.20;76.80
21676;DHT22;10999;51.332;9.458;2023-08-07T13:36:16;17.60;65.60
21676;DHT22;10999;51.332;9.458;2023-08-07T13:38:43;17.90;66.20
21676;DHT22;10999;51.332;9.458;2023-08-07T13:41:13;18.00;61.40
21676;DHT22;10999;51.332;9.458;2023-08-07T13:43:42;18.20;60.30
21676;DHT22;10999;51.332;9.458;2023-08-07T13:46:09;18.40;56.70
21676;DHT22;10999;51.332;9.458;2023-08-07T13:48:36;18.60;54.20
21676;DHT22;10999;51.332;9.458;2023-08-07T13:51:03;18.70;50.90
21676;DHT22;10999;51.332;9.458;2023-08-07T13:53:33;18.90;50.50
21676;DHT22;10999;51.332;9.458;2023-08-07T13:56:00;19.00;47.10
21676;DHT22;10999;51.332;9.458;2023-08-07T13:58:27;19.20;43.20
21676;DHT22;10999;51.332;9.458;2023-08-07T14:00:55;19.30;41.20
21676;DHT22;10999;51.332;9.458;2023-08-07T14:03:22;19.20;41.10
21676;DHT22;10999;51.332;9.458;2023-08-07T14:05:49;19.30;40.90
21676;DHT22;10999;51.332;9.458;2023-08-07T14:08:16;19.50;39.40
21676;DHT22;10999;51.332;9.458;2023-08-07T14:10:44;19.40;37.30
21676;DHT22;10999;51.332;9.458;2023-08-07T14:13:10;19.40;33.40
21676;DHT22;10999;51.332;9.458;2023-08-07T14:15:38;19.40;34.20
21676;DHT22;10999;51.332;9.458;2023-08-07T14:18:05;19.40;35.60
21676;DHT22;10999;51.332;9.458;2023-08-07T14:20:32;19.50;35.00
21676;DHT22;10999;51.332;9.458;2023-08-07T14:23:13;19.50;34.20
21676;DHT22;10999;51.332;9.458;2023-08-07T14:25:47;19.50;34.60
21676;DHT22;10999;51.332;9.458;2023-08-07T14:28:17;19.60;33.80
21676;DHT22;10999;51.332;9.458;2023-08-07T14:30:44;19.50;31.80
21676;DHT22;10999;51.332;9.458;2023-08-07T14:33:11;19.40;33.20
21676;DHT22;10999;51.332;9.458;2023-08-07T14:35:38;19.40;29.70
21676;DHT22;10999;51.332;9.458;2023-08-07T14:38:04;19.40;31.30
21676;DHT22;10999;51.332;9.458;2023-08-07T14:40:31;19.00;30.50
21676;DHT22;10999;51.332;9.458;2023-08-07T14:42:58;18.70;30.40
21676;DHT22;10999;51.332;9.458;2023-08-07T14:45:25;18.80;31.30
21676;DHT22;10999;51.332;9.458;2023-08-07T14:47:52;18.90;32.70
21676;DHT22;10999;51.332;9.458;2023-08-07T14:50:18;18.90;29.50
21676;DHT22;10999;51.332;9.458;2023-08-07T14:52:45;18.70;30.50
21676;DHT22;10999;51.332;9.458;2023-08-07T14:55:12;18.60;33.70
21676;DHT22;10999;51.332;9.458;2023-08-07T14:57:38;18.50;34.20
21676;DHT22;10999;51.332;9.458;2023-08-07T15:00:06;18.30;35.70
21676;DHT22;10999;51.332;9.458;2023-08-07T15:02:34;18.20;36.00
21676;DHT22;10999;51.332;9.458;2023-08-07T15:05:01;18.30;34.90
21676;DHT22;10999;51.332;9.458;2023-08-07T15:07:28;18.40;37.30
21676;DHT22;10999;51.332;9.458;2023-08-07T15:09:55;18.60;35.90
21676;DHT22;10999;51.332;9.458;2023-08-07T15:12:21;18.80;35.20
21676;DHT22;10999;51.332;9.458;2023-08-07T15:14:48;18.90;31.60
21676;DHT22;10999;51.332;9.458;2023-08-07T15:17:15;18.90;32.80
21676;DHT22;10999;51.332;9.458;2023-08-07T15:19:41;18.90;32.80
21676;DHT22;10999;51.332;9.458;2023-08-07T15:22:08;19.00;32.50
21676;DHT22;10999;51.332;9.458;2023-08-07T15:24:35;19.10;32.30
21676;DHT22;10999;51.332;9.458;2023-08-07T15:27:02;19.20;30.80
21676;DHT22;10999;51.332;9.458;2023-08-07T15:29:29;19.20;29.40
21676;DHT22;10999;51.332;9.458;2023-08-07T15:31:55;19.30;30.50
21676;DHT22;10999;51.332;9.458;2023-08-07T15:34:23;19.30;29.60
21676;DHT22;10999;51.332;9.458;2023-08-07T15:36:49;19.20;30.30
21676;DHT22;10999;51.332;9.458;2023-08-07T15:39:16;19.00;30.70
21676;DHT22;10999;51.332;9.458;2023-08-07T15:41:43;18.80;31.10
21676;DHT22;10999;51.332;9.458;2023-08-07T15:44:10;18.80;32.10